Norfolk International Airport
KORF : now visible

Airfield :











YOU CAN JOIN US ON...

 
LOGIN :

Register | Disclaimer

   EN    FR    IT 

 









Legend :    VFR   Marginal VFR   IFR   Intensive IFR   Very Intensive IFR
Visi :
Ceiling :
>= 8 km
>= 3000ft
5 to 8 km
1000 to 3000 ft
1500m to 5 km
500 to 1000 ft
800 to 1500m
200 to 500 ft
< 800m
< 200 ft
Symbols :   Thunderstorms  Fog  Heavy snow  Heavy precipitations  Wind > 20 kt







- Airport Elevation : 26 ft
- IATA code : ORF


KORF - Norfolk International

CURRENT METAR :
  • 190851Z 22005KT 10SM CLR 24/23 A2999 RMK AO2 SLP154 T02440233 53001

EXPIRED METARs :
  • 190751Z 19004KT 10SM CLR 24/23 A2999 RMK AO2 SLP154 T02440233
  • 190651Z 20004KT 10SM CLR 24/23 A2998 RMK AO2 SLP153 T02440233

TAF KORF
Valid from the 19 at 06:00 until the 20 at 06:00 UTC


190543Z 1906/2006 21003KT P6SM SCT250
FM191500 22006KT P6SM SCT040
FM191800 20008KT P6SM BKN050
FM200000 20006KT P6SM SCT200
No reported NOTAMs for that airfield.



MET'MAP, your aeronautical weather chart ! - Copyright ORBIFLY December 2007 - Disclaimer

ORBIFLY MET'MAP TEAM :

Programming & Development : Alexandra Zaïnal
Concept & Development : Baudouin d'Aumeries
Co-Development & Prog : Marc-Olivier Méhu
Technical & hardware support : Manuel Goepfert

Contact : metmap@orbifly.com




SOURCES & CREDITS :

   NOAA       Earth
Advisory